Acworth, Georgia
Current Conditions -  °F | °C
As of 7:47 AM on Saturday 01 Nov 2014 (Local Time) from KRYY Reporting Station
Overcast Overcast  
Wind Chill: 30°   Ceiling: 2800
Heat Index: 37°   Visibility: 10mi
Dew Point: 27°   Wind: 12mph
Humidity: 65%   Direction: 340°NNW
Pressure: 30"   Gusts: 24mph
Location:  34.06°N, 84.68°W
Report Text: KRYY 011147Z 34010G21KT 10SM OVC028 03/M03 A3000
Loading
Personal Weather Stations






























Interactive Weather Map New forecast layout! Learn more

10-Day Weather Forecast

Advertisements
Track Severe Weather on mobile